sensor_id;sensor_type;location;lat;lon;timestamp;P1;durP1;ratioP1;P2;durP2;ratioP2
17686;SDS011;8962;52.538;13.266;2023-03-14T00:01:11;2.33;;;1.45;;
17686;SDS011;8962;52.538;13.266;2023-03-14T00:03:41;1.30;;;1.20;;
17686;SDS011;8962;52.538;13.266;2023-03-14T00:06:09;3.67;;;1.58;;
17686;SDS011;8962;52.538;13.266;2023-03-14T00:08:38;2.20;;;1.50;;
17686;SDS011;8962;52.538;13.266;2023-03-14T00:11:06;3.55;;;1.48;;
17686;SDS011;8962;52.538;13.266;2023-03-14T00:13:34;2.95;;;1.50;;
17686;SDS011;8962;52.538;13.266;2023-03-14T00:16:03;2.33;;;1.40;;
17686;SDS011;8962;52.538;13.266;2023-03-14T00:18:31;3.53;;;1.42;;
17686;SDS011;8962;52.538;13.266;2023-03-14T00:21:01;2.75;;;1.40;;
17686;SDS011;8962;52.538;13.266;2023-03-14T00:23:30;1.90;;;1.33;;
17686;SDS011;8962;52.538;13.266;2023-03-14T00:25:58;2.22;;;1.60;;
17686;SDS011;8962;52.538;13.266;2023-03-14T00:28:26;2.28;;;1.65;;
17686;SDS011;8962;52.538;13.266;2023-03-14T00:30:54;2.78;;;1.60;;
17686;SDS011;8962;52.538;13.266;2023-03-14T00:33:22;4.15;;;1.60;;
17686;SDS011;8962;52.538;13.266;2023-03-14T00:35:53;2.67;;;1.65;;
17686;SDS011;8962;52.538;13.266;2023-03-14T00:38:22;2.22;;;1.30;;
17686;SDS011;8962;52.538;13.266;2023-03-14T00:40:50;1.80;;;1.50;;
17686;SDS011;8962;52.538;13.266;2023-03-14T00:43:19;2.55;;;1.60;;
17686;SDS011;8962;52.538;13.266;2023-03-14T00:45:48;2.30;;;1.45;;
17686;SDS011;8962;52.538;13.266;2023-03-14T00:48:16;2.15;;;1.50;;
17686;SDS011;8962;52.538;13.266;2023-03-14T00:50:51;1.77;;;1.20;;
17686;SDS011;8962;52.538;13.266;2023-03-14T00:53:18;4.93;;;1.50;;
17686;SDS011;8962;52.538;13.266;2023-03-14T00:55:47;4.68;;;1.67;;
17686;SDS011;8962;52.538;13.266;2023-03-14T00:58:15;1.65;;;1.20;;
17686;SDS011;8962;52.538;13.266;2023-03-14T01:00:44;2.40;;;1.70;;
17686;SDS011;8962;52.538;13.266;2023-03-14T01:03:13;3.13;;;1.50;;
17686;SDS011;8962;52.538;13.266;2023-03-14T01:05:41;2.38;;;1.40;;
17686;SDS011;8962;52.538;13.266;2023-03-14T01:08:09;3.50;;;1.55;;
17686;SDS011;8962;52.538;13.266;2023-03-14T01:10:37;3.00;;;1.60;;
17686;SDS011;8962;52.538;13.266;2023-03-14T01:13:07;2.15;;;1.58;;
17686;SDS011;8962;52.538;13.266;2023-03-14T01:15:36;2.55;;;1.50;;
17686;SDS011;8962;52.538;13.266;2023-03-14T01:18:04;4.72;;;1.42;;
17686;SDS011;8962;52.538;13.266;2023-03-14T01:20:32;2.92;;;1.45;;
17686;SDS011;8962;52.538;13.266;2023-03-14T01:23:00;5.43;;;1.50;;
17686;SDS011;8962;52.538;13.266;2023-03-14T01:25:28;2.08;;;1.42;;
17686;SDS011;8962;52.538;13.266;2023-03-14T01:27:55;2.83;;;1.60;;
17686;SDS011;8962;52.538;13.266;2023-03-14T01:30:25;3.88;;;1.50;;
17686;SDS011;8962;52.538;13.266;2023-03-14T01:32:53;4.10;;;1.40;;
17686;SDS011;8962;52.538;13.266;2023-03-14T01:35:21;3.83;;;1.45;;
17686;SDS011;8962;52.538;13.266;2023-03-14T01:37:49;3.05;;;1.55;;
17686;SDS011;8962;52.538;13.266;2023-03-14T01:40:20;1.77;;;1.40;;
17686;SDS011;8962;52.538;13.266;2023-03-14T01:42:53;1.63;;;1.35;;
17686;SDS011;8962;52.538;13.266;2023-03-14T01:48:42;3.03;;;1.40;;
17686;SDS011;8962;52.538;13.266;2023-03-14T01:51:21;2.15;;;1.45;;
17686;SDS011;8962;52.538;13.266;2023-03-14T01:53:55;3.08;;;1.45;;
17686;SDS011;8962;52.538;13.266;2023-03-14T01:56:29;3.17;;;1.30;;
17686;SDS011;8962;52.538;13.266;2023-03-14T01:58:59;2.90;;;1.23;;
17686;SDS011;8962;52.538;13.266;2023-03-14T02:01:32;2.65;;;1.50;;
17686;SDS011;8962;52.538;13.266;2023-03-14T02:04:03;1.67;;;1.27;;
17686;SDS011;8962;52.538;13.266;2023-03-14T02:06:37;3.25;;;1.70;;
17686;SDS011;8962;52.538;13.266;2023-03-14T02:09:12;2.17;;;1.30;;
17686;SDS011;8962;52.538;13.266;2023-03-14T02:11:41;1.55;;;1.10;;
17686;SDS011;8962;52.538;13.266;2023-03-14T02:14:28;2.67;;;1.40;;
17686;SDS011;8962;52.538;13.266;2023-03-14T02:17:15;2.40;;;1.40;;
17686;SDS011;8962;52.538;13.266;2023-03-14T02:20:15;1.77;;;1.30;;
17686;SDS011;8962;52.538;13.266;2023-03-14T02:22:56;2.65;;;1.40;;
17686;SDS011;8962;52.538;13.266;2023-03-14T02:25:28;1.80;;;1.27;;
17686;SDS011;8962;52.538;13.266;2023-03-14T02:28:05;2.05;;;1.35;;
17686;SDS011;8962;52.538;13.266;2023-03-14T02:30:34;2.22;;;1.27;;
17686;SDS011;8962;52.538;13.266;2023-03-14T02:33:04;2.40;;;1.33;;
17686;SDS011;8962;52.538;13.266;2023-03-14T02:35:35;1.90;;;1.20;;
17686;SDS011;8962;52.538;13.266;2023-03-14T02:38:09;1.40;;;1.30;;
17686;SDS011;8962;52.538;13.266;2023-03-14T02:40:44;1.85;;;1.50;;
17686;SDS011;8962;52.538;13.266;2023-03-14T02:43:14;3.03;;;1.58;;
17686;SDS011;8962;52.538;13.266;2023-03-14T02:45:48;3.63;;;1.40;;
17686;SDS011;8962;52.538;13.266;2023-03-14T02:48:20;2.75;;;1.40;;
17686;SDS011;8962;52.538;13.266;2023-03-14T02:50:51;2.13;;;1.38;;
17686;SDS011;8962;52.538;13.266;2023-03-14T02:53:21;1.85;;;1.20;;
17686;SDS011;8962;52.538;13.266;2023-03-14T02:55:55;1.75;;;1.13;;
17686;SDS011;8962;52.538;13.266;2023-03-14T02:58:24;1.85;;;1.30;;
17686;SDS011;8962;52.538;13.266;2023-03-14T03:00:59;2.83;;;1.40;;
17686;SDS011;8962;52.538;13.266;2023-03-14T03:03:28;1.75;;;1.23;;
17686;SDS011;8962;52.538;13.266;2023-03-14T03:05:56;2.25;;;1.38;;
17686;SDS011;8962;52.538;13.266;2023-03-14T03:08:24;1.85;;;1.33;;
17686;SDS011;8962;52.538;13.266;2023-03-14T03:10:54;2.28;;;1.38;;
17686;SDS011;8962;52.538;13.266;2023-03-14T03:13:25;2.95;;;1.20;;
17686;SDS011;8962;52.538;13.266;2023-03-14T03:15:54;1.58;;;1.20;;
17686;SDS011;8962;52.538;13.266;2023-03-14T03:18:24;1.73;;;1.27;;
17686;SDS011;8962;52.538;13.266;2023-03-14T03:20:51;1.90;;;1.15;;
17686;SDS011;8962;52.538;13.266;2023-03-14T03:23:18;2.75;;;1.23;;
17686;SDS011;8962;52.538;13.266;2023-03-14T03:25:49;2.10;;;1.15;;
17686;SDS011;8962;52.538;13.266;2023-03-14T03:28:17;2.38;;;1.23;;
17686;SDS011;8962;52.538;13.266;2023-03-14T03:30:46;2.95;;;1.30;;
17686;SDS011;8962;52.538;13.266;2023-03-14T03:33:14;1.77;;;1.35;;
17686;SDS011;8962;52.538;13.266;2023-03-14T03:35:44;1.27;;;1.17;;
17686;SDS011;8962;52.538;13.266;2023-03-14T03:38:16;2.63;;;1.20;;
17686;SDS011;8962;52.538;13.266;2023-03-14T03:40:48;1.88;;;1.30;;
17686;SDS011;8962;52.538;13.266;2023-03-14T03:43:16;3.17;;;1.40;;
17686;SDS011;8962;52.538;13.266;2023-03-14T03:45:48;4.38;;;1.10;;
17686;SDS011;8962;52.538;13.266;2023-03-14T03:48:16;1.42;;;1.20;;
17686;SDS011;8962;52.538;13.266;2023-03-14T03:50:46;1.67;;;1.20;;
17686;SDS011;8962;52.538;13.266;2023-03-14T03:53:17;2.38;;;1.10;;
17686;SDS011;8962;52.538;13.266;2023-03-14T03:55:48;2.72;;;1.17;;
17686;SDS011;8962;52.538;13.266;2023-03-14T03:58:16;3.15;;;1.30;;
17686;SDS011;8962;52.538;13.266;2023-03-14T04:00:45;2.47;;;1.33;;
17686;SDS011;8962;52.538;13.266;2023-03-14T04:03:13;2.60;;;1.30;;
17686;SDS011;8962;52.538;13.266;2023-03-14T04:05:40;2.10;;;1.10;;
17686;SDS011;8962;52.538;13.266;2023-03-14T04:08:09;3.40;;;1.30;;
17686;SDS011;8962;52.538;13.266;2023-03-14T04:10:36;2.72;;;1.38;;
17686;SDS011;8962;52.538;13.266;2023-03-14T04:13:14;1.70;;;1.17;;
17686;SDS011;8962;52.538;13.266;2023-03-14T04:15:49;2.20;;;1.30;;
17686;SDS011;8962;52.538;13.266;2023-03-14T04:18:23;1.13;;;1.02;;
17686;SDS011;8962;52.538;13.266;2023-03-14T04:20:51;1.52;;;1.13;;
17686;SDS011;8962;52.538;13.266;2023-03-14T04:23:31;1.63;;;1.17;;
17686;SDS011;8962;52.538;13.266;2023-03-14T04:25:58;3.95;;;1.23;;
17686;SDS011;8962;52.538;13.266;2023-03-14T04:28:26;1.10;;;1.00;;
17686;SDS011;8962;52.538;13.266;2023-03-14T04:30:54;3.20;;;1.50;;
17686;SDS011;8962;52.538;13.266;2023-03-14T04:33:25;5.22;;;1.08;;
17686;SDS011;8962;52.538;13.266;2023-03-14T04:35:58;1.90;;;1.10;;
17686;SDS011;8962;52.538;13.266;2023-03-14T04:38:25;2.85;;;1.20;;
17686;SDS011;8962;52.538;13.266;2023-03-14T04:40:53;1.75;;;1.25;;
17686;SDS011;8962;52.538;13.266;2023-03-14T04:43:24;3.95;;;1.50;;
17686;SDS011;8962;52.538;13.266;2023-03-14T04:45:58;2.17;;;1.48;;
17686;SDS011;8962;52.538;13.266;2023-03-14T04:48:27;2.40;;;1.40;;
17686;SDS011;8962;52.538;13.266;2023-03-14T04:50:55;1.70;;;1.10;;
17686;SDS011;8962;52.538;13.266;2023-03-14T04:53:25;2.25;;;1.25;;
17686;SDS011;8962;52.538;13.266;2023-03-14T04:55:55;2.53;;;1.30;;
17686;SDS011;8962;52.538;13.266;2023-03-14T04:58:27;2.25;;;1.15;;
17686;SDS011;8962;52.538;13.266;2023-03-14T05:01:00;1.85;;;1.30;;
17686;SDS011;8962;52.538;13.266;2023-03-14T05:03:44;3.08;;;1.10;;
17686;SDS011;8962;52.538;13.266;2023-03-14T05:06:18;2.55;;;1.40;;
17686;SDS011;8962;52.538;13.266;2023-03-14T05:08:55;1.95;;;1.40;;
17686;SDS011;8962;52.538;13.266;2023-03-14T05:11:45;1.60;;;1.20;;
17686;SDS011;8962;52.538;13.266;2023-03-14T05:14:31;2.88;;;1.60;;
17686;SDS011;8962;52.538;13.266;2023-03-14T05:17:25;4.22;;;1.48;;
17686;SDS011;8962;52.538;13.266;2023-03-14T05:20:15;2.47;;;1.10;;
17686;SDS011;8962;52.538;13.266;2023-03-14T05:22:59;2.53;;;1.30;;
17686;SDS011;8962;52.538;13.266;2023-03-14T05:25:45;1.75;;;1.17;;
17686;SDS011;8962;52.538;13.266;2023-03-14T05:28:47;3.80;;;1.30;;
17686;SDS011;8962;52.538;13.266;2023-03-14T05:31:28;2.03;;;1.20;;
17686;SDS011;8962;52.538;13.266;2023-03-14T05:34:15;2.78;;;1.15;;
17686;SDS011;8962;52.538;13.266;2023-03-14T05:37:03;2.28;;;1.27;;
17686;SDS011;8962;52.538;13.266;2023-03-14T05:39:49;1.98;;;1.20;;
17686;SDS011;8962;52.538;13.266;2023-03-14T05:42:38;2.63;;;1.40;;
17686;SDS011;8962;52.538;13.266;2023-03-14T05:45:29;3.88;;;1.20;;
17686;SDS011;8962;52.538;13.266;2023-03-14T05:48:05;4.10;;;1.20;;
17686;SDS011;8962;52.538;13.266;2023-03-14T05:50:53;2.28;;;1.38;;
17686;SDS011;8962;52.538;13.266;2023-03-14T05:53:46;2.75;;;1.20;;
17686;SDS011;8962;52.538;13.266;2023-03-14T05:56:32;3.63;;;1.20;;
17686;SDS011;8962;52.538;13.266;2023-03-14T05:59:11;3.17;;;1.30;;
17686;SDS011;8962;52.538;13.266;2023-03-14T06:02:00;2.45;;;1.30;;
17686;SDS011;8962;52.538;13.266;2023-03-14T06:04:36;2.58;;;1.55;;
17686;SDS011;8962;52.538;13.266;2023-03-14T06:07:07;2.58;;;1.30;;
17686;SDS011;8962;52.538;13.266;2023-03-14T06:09:37;3.28;;;1.33;;
17686;SDS011;8962;52.538;13.266;2023-03-14T06:12:06;3.33;;;1.33;;
17686;SDS011;8962;52.538;13.266;2023-03-14T06:14:39;3.35;;;1.20;;
17686;SDS011;8962;52.538;13.266;2023-03-14T06:17:06;2.03;;;1.30;;
17686;SDS011;8962;52.538;13.266;2023-03-14T06:19:41;6.82;;;1.58;;
17686;SDS011;8962;52.538;13.266;2023-03-14T06:22:12;3.15;;;1.30;;
17686;SDS011;8962;52.538;13.266;2023-03-14T06:24:42;4.68;;;1.50;;
17686;SDS011;8962;52.538;13.266;2023-03-14T06:27:10;3.55;;;1.27;;
17686;SDS011;8962;52.538;13.266;2023-03-14T06:29:38;3.00;;;1.38;;
17686;SDS011;8962;52.538;13.266;2023-03-14T06:32:08;5.00;;;1.50;;
17686;SDS011;8962;52.538;13.266;2023-03-14T06:34:36;5.53;;;1.58;;
17686;SDS011;8962;52.538;13.266;2023-03-14T06:37:06;3.50;;;1.45;;
17686;SDS011;8962;52.538;13.266;2023-03-14T06:39:34;4.28;;;1.52;;
17686;SDS011;8962;52.538;13.266;2023-03-14T06:42:12;3.17;;;1.42;;
17686;SDS011;8962;52.538;13.266;2023-03-14T06:44:41;5.15;;;1.50;;
17686;SDS011;8962;52.538;13.266;2023-03-14T06:47:08;3.78;;;1.60;;
17686;SDS011;8962;52.538;13.266;2023-03-14T06:49:39;3.25;;;1.70;;
17686;SDS011;8962;52.538;13.266;2023-03-14T06:52:07;6.70;;;1.52;;
17686;SDS011;8962;52.538;13.266;2023-03-14T06:54:34;6.70;;;1.40;;
17686;SDS011;8962;52.538;13.266;2023-03-14T06:57:03;3.15;;;1.52;;
17686;SDS011;8962;52.538;13.266;2023-03-14T06:59:33;4.40;;;1.52;;
17686;SDS011;8962;52.538;13.266;2023-03-14T07:02:01;5.30;;;1.40;;
17686;SDS011;8962;52.538;13.266;2023-03-14T07:04:28;4.00;;;1.65;;
17686;SDS011;8962;52.538;13.266;2023-03-14T07:06:55;4.22;;;1.60;;
17686;SDS011;8962;52.538;13.266;2023-03-14T07:09:24;7.28;;;1.55;;
17686;SDS011;8962;52.538;13.266;2023-03-14T07:11:56;5.28;;;1.70;;
17686;SDS011;8962;52.538;13.266;2023-03-14T07:14:24;3.42;;;1.25;;
17686;SDS011;8962;52.538;13.266;2023-03-14T07:16:53;3.33;;;1.40;;
17686;SDS011;8962;52.538;13.266;2023-03-14T07:19:21;4.43;;;1.70;;
17686;SDS011;8962;52.538;13.266;2023-03-14T07:21:49;2.75;;;1.35;;
17686;SDS011;8962;52.538;13.266;2023-03-14T07:24:21;6.88;;;1.60;;
17686;SDS011;8962;52.538;13.266;2023-03-14T07:26:50;2.58;;;1.20;;
17686;SDS011;8962;52.538;13.266;2023-03-14T07:29:17;2.80;;;1.30;;
17686;SDS011;8962;52.538;13.266;2023-03-14T07:31:45;4.78;;;1.48;;
17686;SDS011;8962;52.538;13.266;2023-03-14T07:34:20;5.43;;;1.77;;
17686;SDS011;8962;52.538;13.266;2023-03-14T07:36:49;7.30;;;1.70;;
17686;SDS011;8962;52.538;13.266;2023-03-14T07:39:17;4.38;;;1.50;;
17686;SDS011;8962;52.538;13.266;2023-03-14T07:41:58;9.45;;;1.73;;
17686;SDS011;8962;52.538;13.266;2023-03-14T07:44:43;3.67;;;1.73;;
17686;SDS011;8962;52.538;13.266;2023-03-14T07:47:12;8.35;;;1.92;;
17686;SDS011;8962;52.538;13.266;2023-03-14T07:49:41;6.72;;;1.75;;
17686;SDS011;8962;52.538;13.266;2023-03-14T07:52:08;3.60;;;1.52;;
17686;SDS011;8962;52.538;13.266;2023-03-14T07:54:36;3.92;;;1.67;;
17686;SDS011;8962;52.538;13.266;2023-03-14T07:57:09;8.82;;;1.70;;
17686;SDS011;8962;52.538;13.266;2023-03-14T07:59:39;5.80;;;1.52;;
17686;SDS011;8962;52.538;13.266;2023-03-14T08:02:07;5.05;;;1.58;;
17686;SDS011;8962;52.538;13.266;2023-03-14T08:04:38;3.28;;;1.42;;
17686;SDS011;8962;52.538;13.266;2023-03-14T08:07:07;4.15;;;1.58;;
17686;SDS011;8962;52.538;13.266;2023-03-14T08:09:35;5.60;;;1.70;;
17686;SDS011;8962;52.538;13.266;2023-03-14T08:12:03;6.25;;;1.50;;
17686;SDS011;8962;52.538;13.266;2023-03-14T08:14:30;3.75;;;1.55;;
17686;SDS011;8962;52.538;13.266;2023-03-14T08:16:58;5.32;;;1.50;;
17686;SDS011;8962;52.538;13.266;2023-03-14T08:19:25;7.38;;;1.45;;
17686;SDS011;8962;52.538;13.266;2023-03-14T08:21:56;4.05;;;1.52;;
17686;SDS011;8962;52.538;13.266;2023-03-14T08:24:23;6.10;;;1.80;;
17686;SDS011;8962;52.538;13.266;2023-03-14T08:26:50;4.72;;;1.50;;
17686;SDS011;8962;52.538;13.266;2023-03-14T08:29:18;6.72;;;1.60;;
17686;SDS011;8962;52.538;13.266;2023-03-14T08:31:45;4.68;;;1.65;;
17686;SDS011;8962;52.538;13.266;2023-03-14T08:34:14;4.50;;;1.48;;
17686;SDS011;8962;52.538;13.266;2023-03-14T08:36:41;4.95;;;1.80;;
17686;SDS011;8962;52.538;13.266;2023-03-14T08:39:10;4.35;;;1.30;;
17686;SDS011;8962;52.538;13.266;2023-03-14T08:41:37;5.35;;;1.55;;
17686;SDS011;8962;52.538;13.266;2023-03-14T08:44:07;5.35;;;1.42;;
17686;SDS011;8962;52.538;13.266;2023-03-14T08:46:36;4.13;;;1.50;;
17686;SDS011;8962;52.538;13.266;2023-03-14T08:49:05;2.83;;;1.35;;
17686;SDS011;8962;52.538;13.266;2023-03-14T08:51:32;6.05;;;2.42;;
17686;SDS011;8962;52.538;13.266;2023-03-14T08:54:00;4.93;;;1.58;;
17686;SDS011;8962;52.538;13.266;2023-03-14T08:56:29;5.75;;;1.88;;
17686;SDS011;8962;52.538;13.266;2023-03-14T08:58:56;4.55;;;1.67;;
17686;SDS011;8962;52.538;13.266;2023-03-14T09:01:24;4.55;;;1.50;;
17686;SDS011;8962;52.538;13.266;2023-03-14T09:03:51;5.75;;;1.80;;
17686;SDS011;8962;52.538;13.266;2023-03-14T09:06:18;6.38;;;1.90;;
17686;SDS011;8962;52.538;13.266;2023-03-14T09:08:48;5.15;;;1.60;;
17686;SDS011;8962;52.538;13.266;2023-03-14T09:11:15;4.78;;;1.60;;
17686;SDS011;8962;52.538;13.266;2023-03-14T09:13:45;5.78;;;1.73;;
17686;SDS011;8962;52.538;13.266;2023-03-14T09:16:14;6.13;;;1.67;;
17686;SDS011;8962;52.538;13.266;2023-03-14T09:18:41;5.47;;;1.40;;
17686;SDS011;8962;52.538;13.266;2023-03-14T09:21:08;8.02;;;1.70;;
17686;SDS011;8962;52.538;13.266;2023-03-14T09:23:36;7.28;;;1.52;;
17686;SDS011;8962;52.538;13.266;2023-03-14T09:26:03;3.65;;;1.55;;
17686;SDS011;8962;52.538;13.266;2023-03-14T09:28:31;5.00;;;1.85;;
17686;SDS011;8962;52.538;13.266;2023-03-14T09:31:05;6.45;;;1.55;;
17686;SDS011;8962;52.538;13.266;2023-03-14T09:33:33;6.30;;;1.45;;
17686;SDS011;8962;52.538;13.266;2023-03-14T09:36:01;3.42;;;1.30;;
17686;SDS011;8962;52.538;13.266;2023-03-14T09:38:28;8.05;;;1.50;;
17686;SDS011;8962;52.538;13.266;2023-03-14T09:40:57;7.53;;;1.95;;
17686;SDS011;8962;52.538;13.266;2023-03-14T09:43:27;4.32;;;1.80;;
17686;SDS011;8962;52.538;13.266;2023-03-14T09:45:58;4.13;;;1.40;;
17686;SDS011;8962;52.538;13.266;2023-03-14T09:48:30;4.32;;;1.40;;
17686;SDS011;8962;52.538;13.266;2023-03-14T09:51:01;6.90;;;1.50;;
17686;SDS011;8962;52.538;13.266;2023-03-14T09:53:34;5.20;;;1.30;;
17686;SDS011;8962;52.538;13.266;2023-03-14T09:56:07;6.95;;;1.80;;
17686;SDS011;8962;52.538;13.266;2023-03-14T09:58:41;4.85;;;1.40;;
17686;SDS011;8962;52.538;13.266;2023-03-14T10:01:13;7.03;;;1.42;;
17686;SDS011;8962;52.538;13.266;2023-03-14T10:03:46;5.47;;;2.17;;
17686;SDS011;8962;52.538;13.266;2023-03-14T10:06:15;4.32;;;1.73;;
17686;SDS011;8962;52.538;13.266;2023-03-14T10:08:42;4.43;;;1.85;;
17686;SDS011;8962;52.538;13.266;2023-03-14T10:11:13;9.32;;;1.90;;
17686;SDS011;8962;52.538;13.266;2023-03-14T10:14:02;5.00;;;1.77;;
17686;SDS011;8962;52.538;13.266;2023-03-14T10:16:33;3.83;;;1.60;;
17686;SDS011;8962;52.538;13.266;2023-03-14T10:19:05;5.85;;;1.42;;
17686;SDS011;8962;52.538;13.266;2023-03-14T10:21:37;3.60;;;1.13;;
17686;SDS011;8962;52.538;13.266;2023-03-14T10:24:09;6.57;;;1.63;;
17686;SDS011;8962;52.538;13.266;2023-03-14T10:26:43;7.20;;;1.83;;
17686;SDS011;8962;52.538;13.266;2023-03-14T10:29:15;4.95;;;2.38;;
17686;SDS011;8962;52.538;13.266;2023-03-14T10:31:46;7.43;;;2.35;;
17686;SDS011;8962;52.538;13.266;2023-03-14T10:34:21;11.63;;;2.03;;
17686;SDS011;8962;52.538;13.266;2023-03-14T10:36:53;4.28;;;1.58;;
17686;SDS011;8962;52.538;13.266;2023-03-14T10:39:24;6.40;;;1.45;;
17686;SDS011;8962;52.538;13.266;2023-03-14T10:42:03;3.83;;;1.60;;
17686;SDS011;8962;52.538;13.266;2023-03-14T10:44:33;5.45;;;1.25;;
17686;SDS011;8962;52.538;13.266;2023-03-14T10:47:02;4.72;;;1.70;;
17686;SDS011;8962;52.538;13.266;2023-03-14T10:49:33;6.72;;;1.88;;
17686;SDS011;8962;52.538;13.266;2023-03-14T10:52:02;5.68;;;1.20;;
17686;SDS011;8962;52.538;13.266;2023-03-14T10:54:40;5.70;;;1.38;;
17686;SDS011;8962;52.538;13.266;2023-03-14T10:57:12;3.30;;;1.42;;
17686;SDS011;8962;52.538;13.266;2023-03-14T10:59:41;6.45;;;1.70;;
17686;SDS011;8962;52.538;13.266;2023-03-14T11:02:15;5.95;;;1.65;;
17686;SDS011;8962;52.538;13.266;2023-03-14T11:05:07;5.93;;;1.40;;
17686;SDS011;8962;52.538;13.266;2023-03-14T11:07:45;3.47;;;1.80;;
17686;SDS011;8962;52.538;13.266;2023-03-14T11:10:16;3.45;;;1.33;;
17686;SDS011;8962;52.538;13.266;2023-03-14T11:12:52;3.53;;;1.50;;
17686;SDS011;8962;52.538;13.266;2023-03-14T11:15:32;8.13;;;1.40;;
17686;SDS011;8962;52.538;13.266;2023-03-14T11:18:10;2.90;;;1.15;;
17686;SDS011;8962;52.538;13.266;2023-03-14T11:20:52;5.10;;;1.48;;
17686;SDS011;8962;52.538;13.266;2023-03-14T11:23:26;5.82;;;1.80;;
17686;SDS011;8962;52.538;13.266;2023-03-14T11:26:00;7.03;;;2.45;;
17686;SDS011;8962;52.538;13.266;2023-03-14T11:28:37;5.05;;;1.30;;
17686;SDS011;8962;52.538;13.266;2023-03-14T11:31:08;3.38;;;1.38;;
17686;SDS011;8962;52.538;13.266;2023-03-14T11:33:46;5.30;;;1.50;;
17686;SDS011;8962;52.538;13.266;2023-03-14T11:36:20;2.95;;;1.20;;
17686;SDS011;8962;52.538;13.266;2023-03-14T11:38:50;5.85;;;1.25;;
17686;SDS011;8962;52.538;13.266;2023-03-14T11:41:22;3.67;;;1.15;;
17686;SDS011;8962;52.538;13.266;2023-03-14T11:43:53;9.82;;;1.90;;
17686;SDS011;8962;52.538;13.266;2023-03-14T11:46:23;6.13;;;1.42;;
17686;SDS011;8962;52.538;13.266;2023-03-14T11:48:57;5.85;;;1.63;;
17686;SDS011;8962;52.538;13.266;2023-03-14T11:51:32;4.50;;;1.23;;
17686;SDS011;8962;52.538;13.266;2023-03-14T11:54:04;3.28;;;1.20;;
17686;SDS011;8962;52.538;13.266;2023-03-14T11:56:42;4.22;;;1.70;;
17686;SDS011;8962;52.538;13.266;2023-03-14T11:59:15;3.40;;;1.30;;
17686;SDS011;8962;52.538;13.266;2023-03-14T12:01:51;10.45;;;1.70;;
17686;SDS011;8962;52.538;13.266;2023-03-14T12:04:24;2.60;;;1.20;;
17686;SDS011;8962;52.538;13.266;2023-03-14T12:07:12;2.60;;;0.90;;
17686;SDS011;8962;52.538;13.266;2023-03-14T12:09:43;4.00;;;1.00;;
17686;SDS011;8962;52.538;13.266;2023-03-14T12:12:11;3.63;;;1.00;;
17686;SDS011;8962;52.538;13.266;2023-03-14T12:14:44;4.88;;;1.20;;
17686;SDS011;8962;52.538;13.266;2023-03-14T12:17:18;11.10;;;1.85;;
17686;SDS011;8962;52.538;13.266;2023-03-14T12:19:47;4.63;;;1.10;;
17686;SDS011;8962;52.538;13.266;2023-03-14T12:22:27;6.50;;;1.38;;
17686;SDS011;8962;52.538;13.266;2023-03-14T12:24:57;5.05;;;1.67;;
17686;SDS011;8962;52.538;13.266;2023-03-14T12:27:41;9.30;;;1.23;;
17686;SDS011;8962;52.538;13.266;2023-03-14T12:30:30;5.30;;;1.65;;
17686;SDS011;8962;52.538;13.266;2023-03-14T12:35:57;3.92;;;1.27;;
17686;SDS011;8962;52.538;13.266;2023-03-14T12:38:31;2.17;;;0.90;;
17686;SDS011;8962;52.538;13.266;2023-03-14T12:41:13;1.20;;;1.00;;
17686;SDS011;8962;52.538;13.266;2023-03-14T12:43:43;2.92;;;1.00;;
17686;SDS011;8962;52.538;13.266;2023-03-14T12:46:23;3.55;;;0.90;;
17686;SDS011;8962;52.538;13.266;2023-03-14T12:48:54;3.28;;;0.93;;
17686;SDS011;8962;52.538;13.266;2023-03-14T12:51:30;3.38;;;1.00;;
17686;SDS011;8962;52.538;13.266;2023-03-14T12:57:09;5.35;;;1.38;;
17686;SDS011;8962;52.538;13.266;2023-03-14T12:59:47;4.07;;;0.98;;
17686;SDS011;8962;52.538;13.266;2023-03-14T13:02:22;1.42;;;1.00;;
17686;SDS011;8962;52.538;13.266;2023-03-14T13:04:52;8.70;;;1.30;;
17686;SDS011;8962;52.538;13.266;2023-03-14T13:10:30;4.30;;;1.52;;
17686;SDS011;8962;52.538;13.266;2023-03-14T13:13:19;2.17;;;1.10;;
17686;SDS011;8962;52.538;13.266;2023-03-14T13:15:48;4.78;;;1.60;;
17686;SDS011;8962;52.538;13.266;2023-03-14T13:18:24;3.35;;;1.60;;
17686;SDS011;8962;52.538;13.266;2023-03-14T13:20:58;1.92;;;1.20;;
17686;SDS011;8962;52.538;13.266;2023-03-14T13:23:31;3.92;;;2.50;;
17686;SDS011;8962;52.538;13.266;2023-03-14T13:26:03;4.05;;;3.08;;
17686;SDS011;8962;52.538;13.266;2023-03-14T13:28:37;7.03;;;3.85;;
17686;SDS011;8962;52.538;13.266;2023-03-14T13:31:05;3.25;;;2.15;;
17686;SDS011;8962;52.538;13.266;2023-03-14T13:33:32;2.28;;;1.02;;
17686;SDS011;8962;52.538;13.266;2023-03-14T13:36:00;1.38;;;0.70;;
17686;SDS011;8962;52.538;13.266;2023-03-14T13:38:30;1.67;;;0.80;;
17686;SDS011;8962;52.538;13.266;2023-03-14T13:41:03;2.05;;;0.90;;
17686;SDS011;8962;52.538;13.266;2023-03-14T13:43:35;1.08;;;0.70;;
17686;SDS011;8962;52.538;13.266;2023-03-14T13:46:06;2.45;;;0.75;;
17686;SDS011;8962;52.538;13.266;2023-03-14T13:48:41;1.80;;;1.00;;
17686;SDS011;8962;52.538;13.266;2023-03-14T13:51:11;1.98;;;0.80;;
17686;SDS011;8962;52.538;13.266;2023-03-14T13:53:45;2.65;;;1.52;;
17686;SDS011;8962;52.538;13.266;2023-03-14T13:56:19;2.83;;;1.08;;
17686;SDS011;8962;52.538;13.266;2023-03-14T13:58:48;1.15;;;0.70;;
17686;SDS011;8962;52.538;13.266;2023-03-14T14:01:16;1.73;;;0.80;;
17686;SDS011;8962;52.538;13.266;2023-03-14T14:03:47;3.10;;;0.85;;
17686;SDS011;8962;52.538;13.266;2023-03-14T14:06:19;1.10;;;0.77;;
17686;SDS011;8962;52.538;13.266;2023-03-14T14:08:53;1.60;;;0.70;;
17686;SDS011;8962;52.538;13.266;2023-03-14T14:11:25;1.80;;;0.90;;
17686;SDS011;8962;52.538;13.266;2023-03-14T14:14:02;0.80;;;0.60;;
17686;SDS011;8962;52.538;13.266;2023-03-14T14:16:32;1.35;;;0.70;;
17686;SDS011;8962;52.538;13.266;2023-03-14T14:18:59;2.67;;;0.82;;
17686;SDS011;8962;52.538;13.266;2023-03-14T14:21:29;6.85;;;0.57;;
17686;SDS011;8962;52.538;13.266;2023-03-14T14:23:59;4.03;;;0.60;;
17686;SDS011;8962;52.538;13.266;2023-03-14T14:26:28;3.47;;;0.57;;
17686;SDS011;8962;52.538;13.266;2023-03-14T14:28:59;0.50;;;0.50;;
17686;SDS011;8962;52.538;13.266;2023-03-14T14:31:28;0.70;;;0.63;;
17686;SDS011;8962;52.538;13.266;2023-03-14T14:33:56;8.88;;;2.60;;
17686;SDS011;8962;52.538;13.266;2023-03-14T14:36:25;3.70;;;2.13;;
17686;SDS011;8962;52.538;13.266;2023-03-14T14:38:59;2.92;;;1.63;;
17686;SDS011;8962;52.538;13.266;2023-03-14T14:41:31;1.10;;;0.80;;
17686;SDS011;8962;52.538;13.266;2023-03-14T14:44:02;1.35;;;0.80;;
17686;SDS011;8962;52.538;13.266;2023-03-14T14:46:32;2.05;;;0.70;;
17686;SDS011;8962;52.538;13.266;2023-03-14T14:49:05;1.05;;;0.80;;
17686;SDS011;8962;52.538;13.266;2023-03-14T14:51:38;1.95;;;0.90;;
17686;SDS011;8962;52.538;13.266;2023-03-14T14:54:12;5.25;;;0.75;;
17686;SDS011;8962;52.538;13.266;2023-03-14T14:56:48;1.08;;;0.80;;
17686;SDS011;8962;52.538;13.266;2023-03-14T14:59:22;1.23;;;0.80;;
17686;SDS011;8962;52.538;13.266;2023-03-14T15:01:54;2.75;;;0.80;;
17686;SDS011;8962;52.538;13.266;2023-03-14T15:04:23;1.35;;;0.90;;
17686;SDS011;8962;52.538;13.266;2023-03-14T15:06:52;2.15;;;1.10;;
17686;SDS011;8962;52.538;13.266;2023-03-14T15:09:19;5.68;;;1.10;;
17686;SDS011;8962;52.538;13.266;2023-03-14T15:11:48;8.00;;;0.93;;
17686;SDS011;8962;52.538;13.266;2023-03-14T15:14:18;7.35;;;0.90;;
17686;SDS011;8962;52.538;13.266;2023-03-14T15:16:46;6.85;;;0.90;;
17686;SDS011;8962;52.538;13.266;2023-03-14T15:19:19;7.88;;;0.90;;
17686;SDS011;8962;52.538;13.266;2023-03-14T15:21:49;3.40;;;0.90;;
17686;SDS011;8962;52.538;13.266;2023-03-14T15:24:17;6.30;;;0.73;;
17686;SDS011;8962;52.538;13.266;2023-03-14T15:26:44;2.25;;;0.50;;
17686;SDS011;8962;52.538;13.266;2023-03-14T15:29:12;3.45;;;0.80;;